Time;durP1;ratioP1;P1;durP2;ratioP2;P2;SDS_P1;SDS_P2;PMS_P1;PMS_P2;Temp;Humidity;BMP_temperature;BMP_pressure;BME280_temperature;BME280_humidity;BME280_pressure;Samples;Min_cycle;Max_cycle;Signal;HPM_P1;HPM_P2
2024/04/14 00:02:08;;;;;;;14.00;4.32;;;14.50;1.00;;;;;;7380258;19;20014;-62
2024/04/14 00:04:34;;;;;;;13.35;4.90;;;14.50;1.00;;;;;;7380055;19;20018;-61
2024/04/14 00:07:21;;;;;;;14.07;4.63;;;14.40;1.00;;;;;;7378501;19;20382;-61
2024/04/14 00:09:47;;;;;;;10.93;4.00;;;14.40;1.00;;;;;;7381254;19;20026;-62
2024/04/14 00:12:13;;;;;;;11.80;4.38;;;14.30;1.00;;;;;;7379152;19;20033;-62
2024/04/14 00:14:40;;;;;;;11.95;4.35;;;14.30;1.00;;;;;;7383908;19;20022;-62
2024/04/14 00:17:06;;;;;;;16.65;4.53;;;14.20;1.00;;;;;;7382766;19;20022;-62
2024/04/14 00:19:32;;;;;;;14.70;4.07;;;14.20;1.00;;;;;;7384074;19;20854;-62
2024/04/14 00:21:59;;;;;;;10.52;4.63;;;14.20;1.00;;;;;;7377309;19;20022;-62
2024/04/14 00:24:26;;;;;;;13.43;4.47;;;14.10;1.00;;;;;;7388500;19;20032;-63
2024/04/14 00:26:53;;;;;;;13.35;4.25;;;14.10;1.00;;;;;;7388876;19;20705;-67
2024/04/14 00:29:19;;;;;;;11.82;3.45;;;14.00;1.00;;;;;;7379150;19;20041;-62
2024/04/14 00:31:46;;;;;;;11.43;3.60;;;14.00;1.00;;;;;;7388892;19;20022;-67
2024/04/14 00:34:12;;;;;;;13.90;3.70;;;13.90;1.00;;;;;;7390706;19;20015;-66
2024/04/14 00:36:39;;;;;;;10.88;3.13;;;13.90;1.00;;;;;;7389241;19;20372;-67
2024/04/14 00:39:24;;;;;;;13.80;3.28;;;13.80;1.00;;;;;;7387584;19;20018;-67
2024/04/14 00:41:52;;;;;;;10.70;3.40;;;13.70;1.00;;;;;;7390597;19;20478;-67
2024/04/14 00:44:21;;;;;;;12.32;3.00;;;13.70;1.00;;;;;;7388995;19;20022;-68
2024/04/14 00:47:07;;;;;;;13.70;5.07;;;13.70;1.00;;;;;;7387847;19;20018;-67
2024/04/14 00:49:35;;;;;;;9.38;3.15;;;13.60;1.00;;;;;;7390008;19;20490;-67
2024/04/14 00:52:04;;;;;;;9.32;2.97;;;13.60;1.00;;;;;;7389821;19;20022;-67
2024/04/14 00:54:32;;;;;;;8.55;2.88;;;13.50;1.00;;;;;;7386719;19;20018;-68
2024/04/14 00:57:06;;;;;;;11.65;3.50;;;13.50;1.00;;;;;;7390162;19;20082;-67
2024/04/14 00:59:35;;;;;;;9.80;2.83;;;13.30;1.00;;;;;;7387981;19;20014;-67
2024/04/14 01:02:01;;;;;;;7.70;2.20;;;13.20;99.90;;;;;;7388081;19;20014;-67
2024/04/14 01:04:28;;;;;;;7.57;2.28;;;13.00;99.90;;;;;;7387270;19;20019;-62
2024/04/14 01:06:54;;;;;;;8.23;1.67;;;13.00;99.90;;;;;;7378271;19;20022;-62
2024/04/14 01:09:20;;;;;;;8.35;1.80;;;12.90;99.90;;;;;;7380981;19;20473;-62
2024/04/14 01:11:48;;;;;;;8.07;2.25;;;12.70;99.90;;;;;;7380756;19;20462;-62
2024/04/14 01:14:17;;;;;;;6.07;1.95;;;12.60;99.90;;;;;;7376093;19;20018;-62
2024/04/14 01:16:43;;;;;;;7.88;2.10;;;12.60;99.90;;;;;;7375949;19;20383;-61
2024/04/14 01:19:12;;;;;;;9.13;2.15;;;12.50;99.90;;;;;;7379478;19;20023;-61
2024/04/14 01:21:38;;;;;;;8.20;2.00;;;12.40;99.90;;;;;;7379564;19;20025;-61
2024/04/14 01:24:05;;;;;;;5.28;1.80;;;12.30;99.90;;;;;;7377712;19;20131;-62
2024/04/14 01:26:31;;;;;;;7.75;1.95;;;12.30;99.90;;;;;;7379617;19;20039;-62
2024/04/14 01:28:58;;;;;;;6.43;1.13;;;12.20;99.90;;;;;;7381323;19;20082;-67
2024/04/14 01:31:24;;;;;;;9.27;2.05;;;12.10;99.90;;;;;;7385293;19;20030;-67
2024/04/14 01:33:50;;;;;;;6.38;1.60;;;12.00;58.00;;;;;;7385067;19;20010;-67
2024/04/14 01:36:17;;;;;;;8.07;1.80;;;12.00;99.90;;;;;;7382618;19;20036;-68
2024/04/14 01:38:43;;;;;;;6.55;1.65;;;11.90;99.90;;;;;;7383779;19;20022;-67
2024/04/14 01:41:12;;;;;;;9.85;2.05;;;11.80;99.90;;;;;;7382553;19;20045;-67
2024/04/14 01:43:58;;;;;;;10.55;1.92;;;11.80;99.90;;;;;;7377008;19;20021;-67
2024/04/14 01:46:44;;;;;;;7.40;1.70;;;11.70;99.90;;;;;;7383610;19;20022;-67
2024/04/14 01:49:10;;;;;;;6.68;1.58;;;11.60;99.90;;;;;;7384217;19;20496;-67
2024/04/14 01:51:36;;;;;;;8.10;2.03;;;11.60;99.90;;;;;;7381913;19;20027;-67
2024/04/14 01:54:20;;;;;;;11.35;2.33;;;11.50;99.90;;;;;;7377189;19;20491;-62
2024/04/14 01:56:46;;;;;;;8.32;1.73;;;11.50;99.90;;;;;;7375141;19;20359;-64
2024/04/14 01:59:12;;;;;;;9.85;1.60;;;11.50;99.90;;;;;;7374941;19;20014;-61
2024/04/14 02:01:39;;;;;;;7.38;2.00;;;11.40;99.90;;;;;;7375658;19;20029;-61
2024/04/14 02:04:05;;;;;;;7.25;1.83;;;11.40;99.90;;;;;;7377035;19;20021;-62
2024/04/14 02:06:31;;;;;;;7.95;1.80;;;11.40;99.90;;;;;;7380531;19;20014;-67
2024/04/14 02:08:57;;;;;;;11.60;2.35;;;11.40;99.90;;;;;;7378991;19;20090;-66
2024/04/14 02:11:24;;;;;;;6.78;1.58;;;11.30;99.90;;;;;;7381440;19;20025;-66
2024/04/14 02:13:50;;;;;;;8.48;1.60;;;11.20;99.90;;;;;;7379175;19;20504;-66
2024/04/14 02:16:16;;;;;;;7.60;1.55;;;11.30;99.90;;;;;;7378659;19;20018;-66
2024/04/14 02:18:42;;;;;;;8.95;1.90;;;11.20;99.90;;;;;;7375003;19;20026;-61
2024/04/14 02:21:08;;;;;;;7.78;1.65;;;11.20;99.90;;;;;;7379602;19;20015;-62
2024/04/14 02:23:37;;;;;;;7.82;1.65;;;11.20;99.90;;;;;;7371921;19;20019;-62
2024/04/14 02:26:21;;;;;;;9.68;1.92;;;11.20;99.90;;;;;;7377334;19;20122;-62
2024/04/14 02:28:47;;;;;;;6.85;1.80;;;11.10;99.90;;;;;;7377353;19;20766;-62
2024/04/14 02:31:14;;;;;;;10.63;1.80;;;11.10;99.90;;;;;;7377407;19;20865;-60
2024/04/14 02:33:41;;;;;;;7.97;1.58;;;11.10;99.90;;;;;;7378689;19;20030;-61
2024/04/14 02:36:07;;;;;;;9.52;2.22;;;11.10;99.90;;;;;;7373719;19;20074;-61
2024/04/14 02:38:34;;;;;;;13.35;2.75;;;11.00;99.90;;;;;;7377880;19;20029;-61
2024/04/14 02:41:02;;;;;;;6.80;1.70;;;11.00;99.90;;;;;;7378992;19;20018;-62
2024/04/14 02:43:29;;;;;;;10.73;2.03;;;11.00;99.90;;;;;;7372111;19;20022;-61
2024/04/14 02:46:16;;;;;;;7.50;1.80;;;10.90;99.90;;;;;;7376025;19;20050;-61
2024/04/14 02:49:02;;;;;;;9.98;2.00;;;10.90;99.90;;;;;;7374958;19;20019;-61
2024/04/14 02:51:48;;;;;;;8.57;2.28;;;10.90;99.90;;;;;;7369010;19;20045;-61
2024/04/14 02:54:37;;;;;;;15.05;3.00;;;10.90;99.90;;;;;;7377872;19;20022;-61
2024/04/14 02:57:03;;;;;;;7.95;1.98;;;10.80;99.90;;;;;;7376103;19;20022;-61
2024/04/14 02:59:49;;;;;;;9.60;2.15;;;10.80;99.90;;;;;;7377503;19;20022;-69
2024/04/14 03:02:16;;;;;;;13.07;2.53;;;10.70;1.00;;;;;;7375769;19;20486;-66
2024/04/14 03:04:46;;;;;;;8.18;2.10;;;10.70;1.00;;;;;;7376899;19;20488;-67
2024/04/14 03:07:12;;;;;;;10.07;2.53;;;10.70;1.00;;;;;;7375836;19;20386;-67
2024/04/14 03:09:40;;;;;;;17.45;2.33;;;10.60;1.00;;;;;;7377121;19;20018;-67
2024/04/14 03:12:26;;;;;;;7.75;2.45;;;10.60;99.90;;;;;;7375802;19;20015;-66
2024/04/14 03:14:53;;;;;;;8.48;1.95;;;10.60;99.90;;;;;;7374522;19;20025;-68
2024/04/14 03:17:40;;;;;;;8.43;2.25;;;10.50;99.90;;;;;;7375303;19;20014;-67
2024/04/14 03:20:26;;;;;;;9.27;2.05;;;10.50;99.90;;;;;;7375776;19;20044;-66
2024/04/14 03:23:12;;;;;;;7.80;2.13;;;10.40;99.90;;;;;;7373135;19;20014;-67
2024/04/14 03:25:58;;;;;;;10.85;2.10;;;10.40;99.90;;;;;;7373077;19;20082;-67
2024/04/14 03:28:44;;;;;;;9.90;1.95;;;10.40;1.00;;;;;;7375147;19;20357;-67
2024/04/14 03:31:31;;;;;;;9.73;2.40;;;10.40;99.90;;;;;;7375026;19;20022;-66
2024/04/14 03:34:17;;;;;;;7.88;1.90;;;10.40;99.90;;;;;;7376467;19;20026;-61
2024/04/14 03:37:08;;;;;;;10.30;2.00;;;10.40;99.90;;;;;;7380079;19;20450;-61
2024/04/14 03:39:56;;;;;;;10.03;3.47;;;10.40;99.90;;;;;;7379326;19;20393;-60
2024/04/14 03:42:42;;;;;;;8.07;1.65;;;10.40;99.90;;;;;;7381001;19;20026;-61
2024/04/14 03:45:28;;;;;;;6.30;1.83;;;10.30;1.00;;;;;;7381389;19;20026;-66
2024/04/14 03:48:15;;;;;;;9.82;2.30;;;10.30;1.00;;;;;;7378533;19;20029;-61
2024/04/14 03:51:01;;;;;;;11.32;2.53;;;10.30;1.00;;;;;;7376857;19;20026;-61
2024/04/14 03:53:47;;;;;;;8.95;2.00;;;10.30;1.00;;;;;;7383260;19;20592;-67
2024/04/14 03:56:33;;;;;;;13.18;2.20;;;10.30;1.00;;;;;;7377208;19;20018;-66
2024/04/14 03:59:19;;;;;;;12.02;2.42;;;10.20;1.00;;;;;;7377397;19;20015;-68
2024/04/14 04:02:05;;;;;;;10.10;1.90;;;10.30;1.00;;;;;;7378479;19;20615;-67
2024/04/14 04:04:52;;;;;;;9.18;2.40;;;10.20;1.00;;;;;;7377451;19;20035;-61
2024/04/14 04:07:38;;;;;;;9.25;2.30;;;10.20;1.00;;;;;;7380803;19;20018;-61
2024/04/14 04:10:25;;;;;;;11.10;2.63;;;10.10;1.00;;;;;;7375283;19;20030;-61
2024/04/14 04:13:11;;;;;;;10.40;2.65;;;10.10;1.00;;;;;;7378775;19;20024;-61
2024/04/14 04:15:58;;;;;;;10.30;2.45;;;10.00;1.00;;;;;;7375103;19;20171;-61
2024/04/14 04:18:44;;;;;;;11.43;2.33;;;10.00;1.00;;;;;;7377838;19;20036;-61
2024/04/14 04:21:31;;;;;;;10.32;2.80;;;9.90;1.00;;;;;;7374791;19;20026;-61
2024/04/14 04:24:17;;;;;;;12.55;2.10;;;9.80;1.00;;;;;;7378843;19;20037;-61
2024/04/14 04:27:04;;;;;;;12.40;2.42;;;9.80;1.00;;;;;;7376512;19;20042;-61
2024/04/14 04:29:50;;;;;;;11.50;2.40;;;9.80;1.00;;;;;;7377583;19;20038;-61
2024/04/14 04:32:25;;;;;;;9.32;1.90;;;9.70;1.00;;;;;;7380308;19;21045;-61
2024/04/14 04:34:52;;;;;;;11.52;2.50;;;9.80;1.00;;;;;;7377332;19;20715;-61
2024/04/14 04:37:19;;;;;;;15.23;2.55;;;9.80;1.00;;;;;;7376307;19;20045;-61
2024/04/14 04:39:45;;;;;;;10.30;2.08;;;9.70;1.00;;;;;;7379099;19;20014;-61
2024/04/14 04:42:11;;;;;;;14.80;2.33;;;9.70;1.00;;;;;;7376242;19;20086;-61
2024/04/14 04:44:37;;;;;;;11.70;2.20;;;9.70;1.00;;;;;;7375968;19;20078;-61
2024/04/14 04:47:03;;;;;;;8.85;2.15;;;9.70;1.00;;;;;;7378444;19;20429;-61
2024/04/14 04:49:29;;;;;;;10.55;2.20;;;9.70;1.00;;;;;;7377093;19;20018;-61
2024/04/14 04:51:56;;;;;;;10.02;2.45;;;9.70;1.00;;;;;;7378672;19;20026;-61
2024/04/14 04:54:22;;;;;;;11.32;2.22;;;9.70;1.00;;;;;;7378244;19;20014;-61
2024/04/14 04:56:48;;;;;;;12.85;1.98;;;9.70;1.00;;;;;;7379000;19;20489;-62
2024/04/14 04:59:14;;;;;;;8.38;2.30;;;9.70;1.00;;;;;;7377770;19;20049;-61
2024/04/14 05:01:40;;;;;;;13.32;2.70;;;9.70;1.00;;;;;;7377040;19;20527;-61
2024/04/14 05:04:07;;;;;;;10.75;2.20;;;9.70;1.00;;;;;;7378270;19;20022;-62
2024/04/14 05:06:33;;;;;;;12.40;2.13;;;9.70;1.00;;;;;;7376844;19;20015;-61
2024/04/14 05:08:59;;;;;;;12.77;2.80;;;9.70;1.00;;;;;;7378776;19;20663;-61
2024/04/14 05:11:26;;;;;;;13.02;2.22;;;9.80;1.00;;;;;;7375548;19;20069;-61
2024/04/14 05:13:52;;;;;;;13.35;2.40;;;9.80;1.00;;;;;;7377752;19;20029;-61
2024/04/14 05:16:19;;;;;;;9.63;1.77;;;9.80;1.00;;;;;;7375966;19;20026;-61
2024/04/14 05:18:45;;;;;;;12.80;2.42;;;9.80;1.00;;;;;;7376212;19;20025;-61
2024/04/14 05:21:11;;;;;;;11.20;1.95;;;9.80;1.00;;;;;;7379088;19;20864;-66
2024/04/14 05:23:38;;;;;;;9.13;2.35;;;9.80;1.00;;;;;;7378174;19;20034;-66
2024/04/14 05:26:14;;;;;;;12.57;2.10;;;9.80;1.00;;;;;;7378847;19;20026;-61
2024/04/14 05:28:40;;;;;;;12.15;2.47;;;9.80;1.00;;;;;;7379226;19;20029;-61
2024/04/14 05:31:06;;;;;;;9.52;2.00;;;9.80;99.90;;;;;;7375149;19;20052;-61
2024/04/14 05:33:32;;;;;;;15.10;2.58;;;9.80;99.90;;;;;;7379858;19;20014;-66
2024/04/14 05:36:03;;;;;;;13.25;2.75;;;9.80;99.90;;;;;;7377883;19;20652;-61
2024/04/14 05:38:35;;;;;;;11.77;2.42;;;9.80;99.90;;;;;;7376011;19;20034;-60
2024/04/14 05:41:02;;;;;;;12.00;2.50;;;9.80;99.90;;;;;;7375973;19;20019;-60
2024/04/14 05:43:28;;;;;;;10.85;1.73;;;9.80;99.90;;;;;;7371147;19;20028;-65
2024/04/14 05:45:54;;;;;;;14.65;2.00;;;9.90;99.90;;;;;;7374246;19;20014;-67
2024/04/14 05:48:20;;;;;;;9.13;1.50;;;9.90;99.90;;;;;;7375642;19;20859;-66
2024/04/14 05:50:47;;;;;;;17.52;2.10;;;9.90;99.90;;;;;;7377843;19;20039;-66
2024/04/14 05:53:13;;;;;;;6.07;2.25;;;10.00;99.90;;;;;;7376746;19;20018;-66
2024/04/14 05:55:39;;;;;;;10.70;1.85;;;10.10;99.90;;;;;;7379447;19;20033;-67
2024/04/14 05:58:05;;;;;;;9.02;1.98;;;10.10;99.90;;;;;;7374748;19;20036;-66
2024/04/14 06:00:35;;;;;;;9.98;2.28;;;10.10;99.90;;;;;;7374583;19;20516;-68
2024/04/14 06:03:01;;;;;;;10.38;2.45;;;10.20;99.90;;;;;;7376009;19;20041;-67
2024/04/14 06:05:27;;;;;;;9.40;1.98;;;10.20;99.90;;;;;;7376980;19;20037;-66
2024/04/14 06:07:53;;;;;;;7.80;1.98;;;10.20;99.90;;;;;;7376432;19;20030;-67
2024/04/14 06:10:20;;;;;;;10.57;2.50;;;10.40;99.90;;;;;;7375540;19;20015;-67
2024/04/14 06:12:46;;;;;;;12.77;1.92;;;10.50;99.90;;;;;;7375573;19;20018;-67
2024/04/14 06:15:12;;;;;;;7.30;1.60;;;10.60;99.90;;;;;;7377613;19;20373;-68
2024/04/14 06:17:39;;;;;;;6.25;1.95;;;10.80;99.90;;;;;;7372092;19;20025;-67
2024/04/14 06:20:06;;;;;;;9.82;1.92;;;10.80;99.90;;;;;;7375558;19;20493;-67
2024/04/14 06:22:32;;;;;;;11.60;2.17;;;10.80;71.90;;;;;;7371502;19;20030;-67
2024/04/14 06:24:58;;;;;;;8.98;1.95;;;10.90;99.90;;;;;;7374055;19;20018;-67
2024/04/14 06:27:25;;;;;;;10.05;1.88;;;11.00;99.90;;;;;;7373061;19;20014;-67
2024/04/14 06:29:51;;;;;;;11.98;2.33;;;11.00;1.00;;;;;;7377335;19;20627;-68
2024/04/14 06:32:17;;;;;;;8.50;1.92;;;11.30;23.90;;;;;;7376270;19;20041;-68
2024/04/14 06:34:43;;;;;;;9.88;2.25;;;11.40;1.00;;;;;;7374292;19;20039;-67
2024/04/14 06:37:16;;;;;;;8.90;1.60;;;11.50;1.00;;;;;;7369086;19;20494;-68
2024/04/14 06:39:42;;;;;;;;;;;11.40;99.90;;;;;;7373503;19;20018;-67
2024/04/14 06:42:08;;;;;;;12.88;2.55;;;11.50;99.90;;;;;;7378076;19;19923;-67
2024/04/14 06:44:34;;;;;;;10.07;2.33;;;11.60;1.00;;;;;;7375168;19;20021;-67
2024/04/14 06:47:00;;;;;;;11.40;2.35;;;11.80;1.00;;;;;;7378447;19;20018;-67
2024/04/14 06:49:27;;;;;;;6.80;1.38;;;11.80;99.90;;;;;;7375767;19;20098;-67
2024/04/14 06:51:53;;;;;;;8.05;2.15;;;12.00;99.90;;;;;;7379236;19;20082;-64
2024/04/14 06:54:20;;;;;;;4.63;1.30;;;12.10;1.00;;;;;;7373027;19;20058;-61
2024/04/14 06:56:46;;;;;;;8.48;1.60;;;12.20;87.80;;;;;;7378262;19;20014;-61
2024/04/14 06:59:12;;;;;;;6.75;1.40;;;12.40;99.90;;;;;;7376089;19;20037;-61
2024/04/14 07:01:40;;;;;;;7.45;1.58;;;12.60;1.00;;;;;;7373635;19;20018;-61
2024/04/14 07:04:06;;;;;;;10.98;2.22;;;12.80;24.00;;;;;;7374632;19;20146;-61
2024/04/14 07:06:32;;;;;;;8.50;1.67;;;13.00;90.90;;;;;;7375837;19;20029;-61
2024/04/14 07:08:58;;;;;;;6.63;1.63;;;13.10;1.00;;;;;;7375686;19;20018;-61
2024/04/14 07:11:24;;;;;;;8.60;1.90;;;13.20;1.00;;;;;;7375238;19;20062;-64
2024/04/14 07:13:51;;;;;;;7.03;1.80;;;13.40;1.00;;;;;;7375697;19;20469;-62
2024/04/14 07:16:17;;;;;;;8.02;1.98;;;13.30;1.00;;;;;;7373452;19;20026;-62
2024/04/14 07:18:46;;;;;;;7.63;1.90;;;13.70;1.00;;;;;;7378257;19;20063;-60
2024/04/14 07:21:13;;;;;;;6.57;1.85;;;13.90;1.00;;;;;;7374743;19;20016;-60
2024/04/14 07:23:39;;;;;;;8.10;1.95;;;13.80;99.90;;;;;;7374013;19;20022;-61
2024/04/14 07:26:06;;;;;;;6.28;1.58;;;14.00;99.90;;;;;;7377766;19;20940;-67
2024/04/14 07:28:32;;;;;;;9.75;1.92;;;14.20;1.00;;;;;;7377710;19;20070;-67
2024/04/14 07:30:58;;;;;;;7.82;1.42;;;14.30;99.90;;;;;;7374903;19;20018;-68
2024/04/14 07:33:24;;;;;;;7.30;1.50;;;14.30;99.90;;;;;;7374006;19;20021;-67
2024/04/14 07:35:50;;;;;;;5.82;1.40;;;14.80;99.90;;;;;;7376229;19;20019;-62
2024/04/14 07:38:17;;;;;;;6.70;1.38;;;14.80;99.90;;;;;;7376044;19;20100;-61
2024/04/14 07:40:44;;;;;;;4.60;1.27;;;14.80;99.90;;;;;;7373907;19;20019;-61
2024/04/14 07:43:10;;;;;;;7.53;1.77;;;15.00;99.90;;;;;;7372697;19;20050;-65
2024/04/14 07:45:36;;;;;;;8.95;1.67;;;14.90;99.90;;;;;;7378450;19;20062;-61
2024/04/14 07:48:02;;;;;;;6.30;1.45;;;14.90;99.90;;;;;;7373309;19;20021;-62
2024/04/14 07:50:29;;;;;;;6.82;1.50;;;15.00;99.90;;;;;;7373706;19;20023;-62
2024/04/14 07:52:55;;;;;;;5.88;1.50;;;14.90;99.90;;;;;;7369569;19;20512;-63
2024/04/14 07:55:21;;;;;;;4.72;1.00;;;15.00;99.90;;;;;;7375323;19;20011;-62
2024/04/14 07:57:47;;;;;;;6.45;1.45;;;15.00;99.90;;;;;;7372173;19;20022;-61
2024/04/14 08:00:13;;;;;;;9.20;1.55;;;15.00;99.90;;;;;;7374086;19;20029;-63
2024/04/14 08:02:42;;;;;;;5.93;1.65;;;15.10;99.90;;;;;;7367604;19;20015;-63
2024/04/14 08:05:08;;;;;;;6.78;1.40;;;15.20;99.90;;;;;;7375297;19;20010;-62
2024/04/14 08:07:34;;;;;;;7.68;1.50;;;15.10;99.90;;;;;;7374520;19;20793;-66
2024/04/14 08:10:00;;;;;;;6.50;1.30;;;15.10;99.90;;;;;;7373893;19;20029;-63
2024/04/14 08:12:28;;;;;;;5.50;1.13;;;15.00;99.90;;;;;;7373456;19;20022;-64
2024/04/14 08:14:54;;;;;;;7.47;1.90;;;14.80;99.90;;;;;;7368302;19;20045;-62
2024/04/14 08:17:20;;;;;;;6.10;1.85;;;15.30;99.90;;;;;;7374495;19;20028;-62
2024/04/14 08:19:48;;;;;;;5.07;2.10;;;15.80;99.90;;;;;;7368141;19;20019;-61
2024/04/14 08:22:15;;;;;;;6.15;1.80;;;16.00;99.90;;;;;;7376975;19;20114;-62
2024/04/14 08:24:41;;;;;;;6.43;1.58;;;16.40;99.90;;;;;;7375572;19;20011;-62
2024/04/14 08:27:07;;;;;;;5.25;1.30;;;16.40;99.90;;;;;;7377452;19;20066;-62
2024/04/14 08:29:33;;;;;;;8.00;1.23;;;16.20;99.90;;;;;;7373374;19;20495;-62
2024/04/14 08:32:00;;;;;;;6.45;1.40;;;16.60;99.90;;;;;;7356313;19;20043;-76
2024/04/14 08:34:30;;;;;;;5.97;1.17;;;16.60;99.90;;;;;;7369034;19;20029;-75
2024/04/14 08:37:14;;;;;;;6.22;1.35;;;17.00;99.90;;;;;;7369231;19;20018;-59
2024/04/14 08:39:41;;;;;;;8.70;1.70;;;16.90;99.90;;;;;;7377400;19;20019;-60
2024/04/14 08:42:10;;;;;;;3.13;1.10;;;16.60;99.90;;;;;;7384110;19;20023;-60
2024/04/14 08:44:39;;;;;;;8.50;2.10;;;16.70;99.90;;;;;;7379751;19;20070;-60
2024/04/14 08:47:11;;;;;;;5.72;1.17;;;17.20;99.90;;;;;;7380642;19;20098;-60
2024/04/14 08:49:39;;;;;;;5.43;1.10;;;16.60;99.90;;;;;;7379853;19;20047;-61
2024/04/14 08:52:06;;;;;;;8.35;1.52;;;15.80;99.90;;;;;;7374671;19;20014;-62
2024/04/14 08:54:32;;;;;;;6.60;1.52;;;15.30;99.90;;;;;;7382872;19;20021;-59
2024/04/14 08:57:01;;;;;;;4.57;1.75;;;15.50;99.90;;;;;;7382653;19;20018;-62
2024/04/14 08:59:27;;;;;;;7.88;1.35;;;15.90;99.90;;;;;;7379210;19;20053;-62
2024/04/14 09:01:54;;;;;;;5.15;1.42;;;15.80;99.90;;;;;;7383410;19;20748;-62
2024/04/14 09:04:20;;;;;;;5.90;1.50;;;16.60;99.90;;;;;;7378490;19;20022;-60
2024/04/14 09:06:48;;;;;;;7.15;1.50;;;17.00;99.90;;;;;;7381886;19;20058;-60
2024/04/14 09:09:14;;;;;;;6.60;1.50;;;17.40;99.90;;;;;;7383409;19;20014;-60
2024/04/14 09:11:55;;;;;;;6.70;1.38;;;17.60;99.90;;;;;;7380005;19;20018;-62
2024/04/14 09:14:22;;;;;;;8.88;1.80;;;17.10;99.90;;;;;;7379657;19;20105;-62
2024/04/14 09:16:51;;;;;;;6.90;1.60;;;17.10;99.90;;;;;;7380604;19;20647;-62
2024/04/14 09:19:22;;;;;;;5.57;1.42;;;17.30;99.90;;;;;;7379375;19;20029;-63
2024/04/14 09:21:49;;;;;;;6.35;1.50;;;17.60;99.90;;;;;;7376681;19;20119;-63
2024/04/14 09:24:15;;;;;;;5.18;1.52;;;17.50;99.90;;;;;;7377654;19;20025;-63
2024/04/14 09:26:44;;;;;;;7.82;1.75;;;17.50;99.90;;;;;;7379244;19;20838;-60
2024/04/14 09:29:11;;;;;;;4.88;1.13;;;17.60;99.90;;;;;;7380018;19;20019;-63
2024/04/14 09:31:37;;;;;;;7.50;1.48;;;17.90;99.90;;;;;;7378605;19;20014;-62
2024/04/14 09:34:05;;;;;;;4.53;1.27;;;17.40;99.90;;;;;;7379580;19;20022;-60
2024/04/14 09:36:32;;;;;;;5.13;1.25;;;17.30;99.90;;;;;;7378106;19;20385;-59
2024/04/14 09:39:01;;;;;;;6.70;1.67;;;17.40;99.90;;;;;;7378322;19;20838;-60
2024/04/14 09:41:29;;;;;;;5.15;1.60;;;18.10;99.90;;;;;;7379304;19;20038;-60
2024/04/14 09:43:58;;;;;;;6.30;1.33;;;17.90;99.90;;;;;;7379605;19;20355;-60
2024/04/14 09:46:25;;;;;;;5.40;1.52;;;17.40;99.90;;;;;;7380717;19;20577;-59
2024/04/14 09:48:53;;;;;;;6.53;1.40;;;17.10;99.90;;;;;;7378000;19;20022;-59
2024/04/14 09:51:20;;;;;;;4.05;1.17;;;17.60;99.90;;;;;;7378120;19;20026;-59
2024/04/14 09:53:49;;;;;;;7.60;1.50;;;17.10;99.90;;;;;;7379888;19;20019;-60
2024/04/14 09:56:16;;;;;;;7.72;1.60;;;16.60;99.90;;;;;;7377200;19;20015;-58
2024/04/14 09:58:42;;;;;;;3.58;1.00;;;16.80;99.90;;;;;;7379434;19;20672;-60
2024/04/14 10:01:15;;;;;;;4.55;1.30;;;17.50;99.90;;;;;;7377504;19;20637;-63
2024/04/14 10:03:44;;;;;;;7.15;1.80;;;17.20;99.90;;;;;;7373570;19;20020;-63
2024/04/14 10:06:13;;;;;;;6.38;1.50;;;16.90;99.90;;;;;;7376002;19;20041;-63
2024/04/14 10:08:40;;;;;;;5.65;1.40;;;16.30;99.90;;;;;;7377869;19;20014;-64
2024/04/14 10:11:06;;;;;;;6.35;1.73;;;16.00;99.90;;;;;;7376325;19;20341;-60
2024/04/14 10:13:50;;;;;;;7.70;1.73;;;15.70;99.90;;;;;;7378100;19;20478;-60
2024/04/14 10:16:21;;;;;;;7.07;1.55;;;15.10;99.90;;;;;;7376056;19;20544;-60
2024/04/14 10:18:48;;;;;;;8.10;1.97;;;15.30;99.90;;;;;;7375613;19;20015;-60
2024/04/14 10:21:21;;;;;;;7.93;1.65;;;16.20;99.90;;;;;;7376636;19;20486;-63
2024/04/14 10:23:57;;;;;;;7.05;1.73;;;16.90;99.90;;;;;;7375923;19;20784;-63
2024/04/14 10:26:24;;;;;;;7.60;1.80;;;17.80;99.90;;;;;;7376843;19;20019;-63
2024/04/14 10:28:55;;;;;;;6.47;1.40;;;18.80;99.90;;;;;;7377012;19;20499;-62
2024/04/14 10:31:29;;;;;;;10.63;1.70;;;18.20;99.90;;;;;;7374794;19;20018;-60
2024/04/14 10:34:21;;;;;;;7.93;1.75;;;17.50;99.90;;;;;;7377054;19;20018;-62
2024/04/14 10:36:58;;;;;;;7.00;1.55;;;16.50;99.90;;;;;;7371712;19;20026;-61
2024/04/14 10:39:24;;;;;;;7.47;2.03;;;16.00;99.90;;;;;;7375933;19;20031;-63
2024/04/14 10:41:51;;;;;;;5.45;1.42;;;15.90;99.90;;;;;;7376179;19;20035;-62
2024/04/14 10:44:18;;;;;;;5.57;1.65;;;16.30;99.90;;;;;;7372323;19;20026;-63
2024/04/14 10:46:48;;;;;;;8.27;1.83;;;17.20;99.90;;;;;;7374598;19;20026;-63
2024/04/14 10:49:16;;;;;;;5.78;1.70;;;18.60;99.90;;;;;;7378317;19;20018;-64
2024/04/14 10:51:42;;;;;;;7.57;1.50;;;18.80;99.90;;;;;;7373814;19;20022;-63
2024/04/14 10:54:08;;;;;;;4.93;1.30;;;19.50;99.90;;;;;;7375716;19;20027;-64
2024/04/14 10:56:35;;;;;;;6.10;2.40;;;18.50;99.90;;;;;;7374128;19;20062;-64
2024/04/14 10:59:01;;;;;;;5.95;1.45;;;17.70;99.90;;;;;;7377992;19;20026;-64
2024/04/14 11:01:27;;;;;;;4.50;1.20;;;19.10;99.90;;;;;;7374787;19;20601;-63
2024/04/14 11:03:55;;;;;;;5.05;1.13;;;17.90;99.90;;;;;;7374315;19;20022;-63
2024/04/14 11:06:21;;;;;;;6.32;1.35;;;17.90;99.90;;;;;;7375202;19;20643;-62
2024/04/14 11:08:48;;;;;;;3.85;1.00;;;18.50;99.90;;;;;;7377522;19;20036;-63
2024/04/14 11:11:15;;;;;;;6.38;1.58;;;18.80;99.90;;;;;;7372485;19;20019;-60
2024/04/14 11:13:42;;;;;;;4.85;1.55;;;18.90;99.90;;;;;;7376479;19;20891;-61
2024/04/14 11:16:09;;;;;;;3.40;0.93;;;19.20;99.90;;;;;;7379147;19;20047;-60
2024/04/14 11:18:39;;;;;;;9.23;1.65;;;18.10;99.90;;;;;;7373667;19;20060;-64
2024/04/14 11:21:05;;;;;;;5.20;1.23;;;18.60;99.90;;;;;;7377696;19;20037;-60
2024/04/14 11:23:32;;;;;;;8.35;1.55;;;17.90;99.90;;;;;;7375038;19;20029;-60
2024/04/14 11:25:58;;;;;;;8.65;1.83;;;17.20;99.90;;;;;;7374540;19;20029;-59
2024/04/14 11:28:24;;;;;;;5.93;1.77;;;16.60;99.90;;;;;;7374484;19;20023;-60
2024/04/14 11:30:51;;;;;;;5.60;1.60;;;16.60;99.90;;;;;;7374914;19;20031;-60
2024/04/14 11:33:22;;;;;;;7.80;1.63;;;17.90;99.90;;;;;;7373307;19;20114;-61
2024/04/14 11:35:58;;;;;;;7.32;1.80;;;18.30;99.90;;;;;;7372360;19;20086;-60
2024/04/14 11:38:25;;;;;;;5.65;1.50;;;18.10;99.90;;;;;;7375110;19;20739;-61
2024/04/14 11:40:54;;;;;;;7.10;1.63;;;17.40;99.90;;;;;;7375436;19;20021;-60
2024/04/14 11:43:21;;;;;;;5.25;1.20;;;17.00;99.90;;;;;;7374957;19;20011;-59
2024/04/14 11:45:51;;;;;;;5.80;1.58;;;17.00;99.90;;;;;;7375622;19;20026;-60
2024/04/14 11:48:17;;;;;;;5.70;1.63;;;18.30;99.90;;;;;;7377185;19;20035;-62
2024/04/14 11:50:44;;;;;;;6.20;1.88;;;18.10;99.90;;;;;;7374144;19;20022;-63
2024/04/14 11:53:10;;;;;;;4.90;1.30;;;19.10;99.90;;;;;;7372714;19;20015;-62
2024/04/14 11:55:36;;;;;;;11.43;2.20;;;18.90;99.90;;;;;;7377654;19;20019;-60
2024/04/14 11:58:04;;;;;;;7.03;1.60;;;19.90;99.90;;;;;;7379053;19;20046;-60
2024/04/14 12:00:30;;;;;;;7.63;1.45;;;19.50;99.90;;;;;;7382291;19;20067;-63
2024/04/14 12:02:56;;;;;;;6.82;1.45;;;20.00;99.90;;;;;;7380584;19;20046;-63
2024/04/14 12:05:23;;;;;;;4.07;1.23;;;19.50;99.90;;;;;;7377861;19;20073;-63
2024/04/14 12:07:49;;;;;;;6.93;1.33;;;20.30;99.90;;;;;;7379900;19;20014;-60
2024/04/14 12:10:16;;;;;;;6.55;1.33;;;21.10;99.90;;;;;;7380722;19;20470;-60
2024/04/14 12:12:45;;;;;;;6.60;1.65;;;21.10;99.90;;;;;;7379220;19;20023;-60
2024/04/14 12:15:12;;;;;;;6.53;1.70;;;20.40;99.90;;;;;;7381685;19;20033;-60
2024/04/14 12:17:38;;;;;;;6.00;1.77;;;20.40;99.90;;;;;;7381165;19;20086;-60
2024/04/14 12:20:05;;;;;;;7.13;1.52;;;20.80;99.90;;;;;;7383132;19;20022;-60
2024/04/14 12:22:31;;;;;;;6.78;1.60;;;21.40;99.90;;;;;;7380146;19;20340;-60
2024/04/14 12:24:58;;;;;;;8.57;1.40;;;21.40;99.90;;;;;;7381749;19;20026;-60
2024/04/14 12:27:24;;;;;;;4.82;1.55;;;20.20;99.90;;;;;;7382155;19;20022;-63
2024/04/14 12:29:50;;;;;;;5.07;1.17;;;20.90;99.90;;;;;;7382608;19;20102;-62
2024/04/14 12:32:16;;;;;;;4.53;1.40;;;20.60;99.90;;;;;;7380841;19;20014;-62
2024/04/14 12:34:43;;;;;;;6.50;1.40;;;20.20;99.90;;;;;;7380307;19;20039;-65
2024/04/14 12:37:09;;;;;;;9.27;1.90;;;20.00;99.90;;;;;;7380620;19;20019;-63
2024/04/14 12:39:35;;;;;;;8.05;1.60;;;19.00;99.90;;;;;;7381523;19;20018;-60
2024/04/14 12:42:02;;;;;;;7.40;1.83;;;19.60;99.90;;;;;;7382072;19;20034;-61
2024/04/14 12:44:28;;;;;;;3.88;1.13;;;19.70;99.90;;;;;;7380493;19;20135;-61
2024/04/14 12:46:55;;;;;;;8.88;1.80;;;19.90;99.90;;;;;;7380113;19;20019;-61
2024/04/14 12:49:25;;;;;;;5.28;1.10;;;20.80;99.90;;;;;;7383339;19;20390;-61
2024/04/14 12:51:58;;;;;;;7.03;1.52;;;20.90;99.90;;;;;;7380562;19;20010;-60
2024/04/14 12:54:24;;;;;;;6.78;1.52;;;21.30;99.90;;;;;;7383366;19;20018;-64
2024/04/14 12:56:51;;;;;;;6.15;1.17;;;20.70;99.90;;;;;;7381261;19;20430;-63
2024/04/14 12:59:17;;;;;;;6.75;1.40;;;21.00;99.90;;;;;;7379122;19;20031;-61
2024/04/14 13:01:43;;;;;;;4.80;1.88;;;20.80;99.90;;;;;;7375591;19;20018;-64